Time;durP1;ratioP1;P1;durP2;ratioP2;P2;SDS_P1;SDS_P2;PMS_P1;PMS_P2;Temp;Humidity;BMP_temperature;BMP_pressure;BME280_temperature;BME280_humidity;BME280_pressure;Samples;Min_cycle;Max_cycle;Signal;HPM_P1;HPM_P2
2022/04/28 00:00:15;;;;;;;6.90;5.53;;;;;;;;;;5058797;28;20473;-52
2022/04/28 00:02:41;;;;;;;7.83;6.53;;;;;;;;;;5031583;28;20873;-52
2022/04/28 00:05:07;;;;;;;6.63;6.03;;;;;;;;;;5056837;28;20475;-52
2022/04/28 00:07:34;;;;;;;7.70;6.50;;;;;;;;;;5056379;28;20483;-53
2022/04/28 00:10:00;;;;;;;8.73;6.27;;;;;;;;;;5061731;28;20998;-52
2022/04/28 00:12:26;;;;;;;6.67;5.80;;;;;;;;;;5040826;28;20445;-53
2022/04/28 00:14:52;;;;;;;7.60;5.80;;;;;;;;;;5057308;28;20810;-53
2022/04/28 00:17:48;;;;;;;6.90;5.80;;;;;;;;;;5054863;28;20426;-56
2022/04/28 00:20:26;;;;;;;7.27;6.57;;;;;;;;;;5041671;28;20490;-53
2022/04/28 00:23:19;;;;;;;8.67;5.17;;;;;;;;;;5050150;28;20485;-53
2022/04/28 00:25:56;;;;;;;7.37;6.10;;;;;;;;;;5053451;28;20476;-53
2022/04/28 00:28:22;;;;;;;7.37;6.43;;;;;;;;;;5043631;28;21423;-53
2022/04/28 00:30:48;;;;;;;8.10;6.60;;;;;;;;;;5056747;28;20966;-53
2022/04/28 00:33:22;;;;;;;7.57;5.57;;;;;;;;;;5032766;28;20548;-53
2022/04/28 00:35:50;;;;;;;7.07;6.37;;;;;;;;;;5073522;28;20452;-53
2022/04/28 00:38:15;;;;;;;7.40;6.10;;;;;;;;;;5050184;28;20437;-52
2022/04/28 00:40:41;;;;;;;7.20;5.60;;;;;;;;;;5057707;28;20480;-51
2022/04/28 00:43:19;;;;;;;9.80;6.30;;;;;;;;;;5033272;28;20433;-51
2022/04/28 00:45:48;;;;;;;7.43;5.37;;;;;;;;;;5049871;28;20934;-51
2022/04/28 00:51:05;;;;;;;8.47;6.93;;;;;;;;;;5065620;28;21027;-52
2022/04/28 00:53:31;;;;;;;7.30;5.50;;;;;;;;;;5037348;28;21021;-53
2022/04/28 00:55:57;;;;;;;7.00;5.90;;;;;;;;;;5057979;28;20957;-52
2022/04/28 00:58:24;;;;;;;6.93;6.23;;;;;;;;;;5054610;28;20440;-52
2022/04/28 01:00:50;;;;;;;6.47;5.80;;;;;;;;;;5051877;28;21481;-54
2022/04/28 01:03:16;;;;;;;8.83;6.90;;;;;;;;;;5059030;28;20521;-53
2022/04/28 01:05:42;;;;;;;10.83;6.70;;;;;;;;;;5032343;28;20469;-54
2022/04/28 01:08:08;;;;;;;7.77;6.90;;;;;;;;;;5060628;28;20993;-53
2022/04/28 01:10:37;;;;;;;9.07;6.50;;;;;;;;;;5058006;28;20426;-52
2022/04/28 01:13:05;;;;;;;7.03;6.33;;;;;;;;;;5057453;28;20452;-53
2022/04/28 01:16:02;;;;;;;7.33;5.97;;;;;;;;;;5048126;28;22400;-53
2022/04/28 01:18:42;;;;;;;8.43;6.00;;;;;;;;;;5057445;28;20506;-53
2022/04/28 01:21:23;;;;;;;8.50;6.43;;;;;;;;;;5034058;28;20473;-53
2022/04/28 01:23:50;;;;;;;7.10;6.17;;;;;;;;;;5052734;28;20437;-53
2022/04/28 01:26:16;;;;;;;6.97;5.70;;;;;;;;;;5047901;28;20444;-54
2022/04/28 01:28:42;;;;;;;6.53;5.80;;;;;;;;;;5039559;28;20418;-53
2022/04/28 01:31:09;;;;;;;9.30;7.90;;;;;;;;;;5049021;28;20954;-55
2022/04/28 01:33:35;;;;;;;10.50;6.40;;;;;;;;;;5057779;28;20537;-52
2022/04/28 01:36:15;;;;;;;8.20;6.47;;;;;;;;;;5038910;28;20504;-52
2022/04/28 01:38:41;;;;;;;7.97;6.03;;;;;;;;;;5055246;28;20524;-51
2022/04/28 01:41:07;;;;;;;9.70;6.80;;;;;;;;;;5033244;28;20565;-52
2022/04/28 01:43:33;;;;;;;7.40;6.63;;;;;;;;;;5054861;28;20467;-51
2022/04/28 01:46:00;;;;;;;7.20;5.83;;;;;;;;;;5038669;28;21017;-54
2022/04/28 01:48:26;;;;;;;13.40;7.27;;;;;;;;;;5053057;28;20471;-53
2022/04/28 01:56:41;;;;;;;7.20;5.53;;;;;;;;;;5055389;28;20525;-53
2022/04/28 01:59:07;;;;;;;5.00;4.37;;;;;;;;;;5061654;28;20520;-55
2022/04/28 02:01:43;;;;;;;7.97;6.90;;;;;;;;;;5037979;28;20484;-54
2022/04/28 02:04:09;;;;;;;6.77;4.73;;;;;;;;;;5052512;28;20940;-51
2022/04/28 02:06:49;;;;;;;6.40;5.80;;;;;;;;;;5052807;28;20433;-52
2022/04/28 02:09:17;;;;;;;6.70;5.80;;;;;;;;;;5056403;28;20499;-52
2022/04/28 02:11:46;;;;;;;7.83;6.60;;;;;;;;;;5045783;28;20416;-53
2022/04/28 02:14:12;;;;;;;7.70;6.40;;;;;;;;;;5059886;28;20437;-55
2022/04/28 02:16:40;;;;;;;9.23;6.37;;;;;;;;;;5047858;28;20438;-51
2022/04/28 02:19:07;;;;;;;13.20;7.10;;;;;;;;;;5053038;28;20442;-53
2022/04/28 02:21:59;;;;;;;8.90;6.70;;;;;;;;;;5019926;28;21277;-49
2022/04/28 02:24:26;;;;;;;6.90;5.47;;;;;;;;;;5050660;28;20497;-53
2022/04/28 02:27:01;;;;;;;6.87;6.10;;;;;;;;;;5031741;28;20445;-53
2022/04/28 02:29:28;;;;;;;7.50;5.80;;;;;;;;;;5054904;28;20449;-52
2022/04/28 02:31:54;;;;;;;8.70;5.80;;;;;;;;;;5064328;28;20429;-53
2022/04/28 02:34:20;;;;;;;7.07;6.37;;;;;;;;;;5056527;28;20759;-53
2022/04/28 02:36:46;;;;;;;8.77;5.63;;;;;;;;;;5053687;28;20425;-53
2022/04/28 02:39:14;;;;;;;6.63;6.00;;;;;;;;;;5054533;28;20443;-53
2022/04/28 02:41:46;;;;;;;11.07;6.60;;;;;;;;;;5029212;28;21372;-53
2022/04/28 02:44:13;;;;;;;5.63;4.97;;;;;;;;;;5057504;28;20439;-53
2022/04/28 02:46:48;;;;;;;6.23;5.60;;;;;;;;;;5045756;28;22402;-54
2022/04/28 02:49:14;;;;;;;7.40;6.07;;;;;;;;;;5055526;28;20449;-53
2022/04/28 02:51:51;;;;;;;6.37;5.20;;;;;;;;;;5052974;28;20442;-53
2022/04/28 02:54:21;;;;;;;8.17;6.70;;;;;;;;;;5061122;28;21070;-55
2022/04/28 02:56:47;;;;;;;5.77;5.10;;;;;;;;;;5051458;28;21236;-54
2022/04/28 02:59:13;;;;;;;12.70;5.90;;;;;;;;;;5056541;28;20453;-53
2022/04/28 03:01:40;;;;;;;5.50;5.00;;;;;;;;;;5044559;28;21191;-54
2022/04/28 03:04:06;;;;;;;7.93;6.07;;;;;;;;;;5062694;28;20479;-54
2022/04/28 03:12:01;;;;;;;7.33;5.20;;;;;;;;;;5036962;28;20508;-52
2022/04/28 03:14:28;;;;;;;7.10;5.00;;;;;;;;;;5060939;28;20445;-53
2022/04/28 03:17:05;;;;;;;6.57;5.43;;;;;;;;;;5036806;28;20545;-53
2022/04/28 03:19:31;;;;;;;8.73;5.70;;;;;;;;;;5046646;28;20441;-54
2022/04/28 03:21:57;;;;;;;6.50;5.30;;;;;;;;;;5052402;28;20501;-53
2022/04/28 03:24:56;;;;;;;9.13;5.30;;;;;;;;;;5051774;28;20453;-53
2022/04/28 03:27:27;;;;;;;8.03;5.77;;;;;;;;;;5064416;28;20453;-54
2022/04/28 03:29:53;;;;;;;8.70;5.83;;;;;;;;;;5051803;28;20430;-53
2022/04/28 03:32:19;;;;;;;6.23;5.20;;;;;;;;;;5072821;28;20441;-56
2022/04/28 03:37:49;;;;;;;6.97;5.17;;;;;;;;;;5060678;28;20236;-53
2022/04/28 03:40:16;;;;;;;7.70;6.20;;;;;;;;;;5041020;28;20719;-53
2022/04/28 03:42:42;;;;;;;7.67;6.67;;;;;;;;;;5058086;28;20693;-55
2022/04/28 03:45:09;;;;;;;8.10;6.43;;;;;;;;;;5026912;28;20644;-53
2022/04/28 03:47:39;;;;;;;9.20;6.07;;;;;;;;;;5041440;28;20863;-53
2022/04/28 03:50:06;;;;;;;6.53;5.73;;;;;;;;;;5055970;28;20437;-53
2022/04/28 03:52:32;;;;;;;7.93;6.97;;;;;;;;;;5062620;28;20445;-54
2022/04/28 03:55:46;;;;;;;7.93;6.30;;;;;;;;;;5056228;28;21166;-52
2022/04/28 03:58:22;;;;;;;8.80;5.97;;;;;;;;;;5051574;28;20526;-52
2022/04/28 04:00:50;;;;;;;7.50;5.33;;;;;;;;;;5057783;28;20644;-53
2022/04/28 04:03:19;;;;;;;6.20;5.60;;;;;;;;;;5056404;28;20429;-52
2022/04/28 04:05:45;;;;;;;7.83;6.57;;;;;;;;;;5029574;28;20449;-51
2022/04/28 04:08:11;;;;;;;7.37;6.67;;;;;;;;;;5058795;28;20806;-52
2022/04/28 04:10:38;;;;;;;8.87;5.83;;;;;;;;;;5058544;28;20269;-52
2022/04/28 04:13:04;;;;;;;6.87;5.90;;;;;;;;;;5057817;28;20429;-52
2022/04/28 04:15:32;;;;;;;7.30;5.37;;;;;;;;;;5055622;28;20441;-53
2022/04/28 04:17:58;;;;;;;10.20;6.47;;;;;;;;;;5067618;28;20508;-53
2022/04/28 04:20:25;;;;;;;11.27;6.67;;;;;;;;;;5036723;28;20478;-53
2022/04/28 04:22:52;;;;;;;8.47;6.53;;;;;;;;;;5054853;28;20464;-52
2022/04/28 04:25:26;;;;;;;9.27;6.57;;;;;;;;;;5035624;28;20447;-53
2022/04/28 04:27:53;;;;;;;9.77;6.40;;;;;;;;;;5005484;28;20468;-52
2022/04/28 04:33:07;;;;;;;10.60;7.50;;;;;;;;;;5050434;28;20448;-53
2022/04/28 04:35:33;;;;;;;7.73;6.37;;;;;;;;;;5056500;28;20519;-51
2022/04/28 04:37:59;;;;;;;12.17;7.03;;;;;;;;;;5048976;28;20509;-52
2022/04/28 04:40:25;;;;;;;9.00;7.07;;;;;;;;;;5057391;28;20499;-53
2022/04/28 04:42:52;;;;;;;9.60;7.37;;;;;;;;;;5031472;28;22581;-52
2022/04/28 04:45:29;;;;;;;7.27;6.20;;;;;;;;;;5003089;28;20456;-53
2022/04/28 04:48:04;;;;;;;10.40;6.83;;;;;;;;;;5038156;28;20438;-55
2022/04/28 04:50:41;;;;;;;7.27;6.57;;;;;;;;;;5033619;28;20441;-54
2022/04/28 04:53:09;;;;;;;8.87;6.93;;;;;;;;;;5045002;28;20503;-52
2022/04/28 04:55:43;;;;;;;10.10;7.20;;;;;;;;;;5025480;28;21245;-52
2022/04/28 04:58:11;;;;;;;14.30;9.97;;;;;;;;;;5054696;28;20443;-52
2022/04/28 05:00:52;;;;;;;11.50;7.60;;;;;;;;;;5017919;28;20462;-53
2022/04/28 05:03:20;;;;;;;8.07;6.90;;;;;;;;;;5047340;28;20844;-53
2022/04/28 05:05:58;;;;;;;9.47;8.47;;;;;;;;;;5025880;28;21228;-52
2022/04/28 05:08:29;;;;;;;8.30;7.40;;;;;;;;;;5048567;28;20706;-54
2022/04/28 05:10:55;;;;;;;10.40;7.60;;;;;;;;;;5025404;28;20445;-53
2022/04/28 05:13:22;;;;;;;13.03;7.97;;;;;;;;;;5047940;28;20803;-53
2022/04/28 05:15:48;;;;;;;9.50;7.30;;;;;;;;;;5051319;28;20464;-52
2022/04/28 05:18:15;;;;;;;10.43;8.17;;;;;;;;;;5057360;28;20481;-52
2022/04/28 05:20:41;;;;;;;10.83;8.20;;;;;;;;;;5042975;28;20595;-56
2022/04/28 05:23:12;;;;;;;10.40;7.77;;;;;;;;;;5036939;28;20456;-51
2022/04/28 05:25:38;;;;;;;10.33;8.17;;;;;;;;;;5022608;28;20470;-52
2022/04/28 05:28:05;;;;;;;12.73;8.67;;;;;;;;;;5052865;28;20421;-53
2022/04/28 05:30:32;;;;;;;12.70;9.23;;;;;;;;;;5027894;28;20463;-57
2022/04/28 05:32:58;;;;;;;12.93;8.97;;;;;;;;;;5051543;28;20456;-51
2022/04/28 05:35:24;;;;;;;12.33;8.80;;;;;;;;;;5046234;28;20429;-54
2022/04/28 05:37:50;;;;;;;12.47;9.00;;;;;;;;;;5054497;28;20996;-54
2022/04/28 05:40:16;;;;;;;12.20;9.47;;;;;;;;;;5030930;28;20473;-54
2022/04/28 05:45:42;;;;;;;13.47;9.57;;;;;;;;;;5021088;28;20460;-52
2022/04/28 05:48:21;;;;;;;13.20;9.37;;;;;;;;;;5045733;28;20433;-53
2022/04/28 05:50:47;;;;;;;16.30;9.10;;;;;;;;;;5053021;28;20455;-54
2022/04/28 05:53:16;;;;;;;13.10;10.93;;;;;;;;;;5057283;28;20422;-54
2022/04/28 05:55:42;;;;;;;12.33;9.63;;;;;;;;;;5023854;28;20441;-54
2022/04/28 05:58:08;;;;;;;13.10;10.43;;;;;;;;;;5045958;28;20692;-53
2022/04/28 06:00:35;;;;;;;12.20;9.90;;;;;;;;;;5051537;28;20496;-53
2022/04/28 06:03:01;;;;;;;11.50;8.80;;;;;;;;;;5045294;28;20449;-53
2022/04/28 06:05:28;;;;;;;11.07;9.30;;;;;;;;;;4993606;28;20487;-52
2022/04/28 06:08:07;;;;;;;12.00;10.80;;;;;;;;;;5037216;28;20430;-53
2022/04/28 06:10:39;;;;;;;12.87;9.73;;;;;;;;;;5032592;28;20444;-53
2022/04/28 06:13:06;;;;;;;13.90;9.80;;;;;;;;;;5044231;28;20430;-53
2022/04/28 06:15:32;;;;;;;11.60;9.30;;;;;;;;;;5018082;28;20441;-52
2022/04/28 06:18:12;;;;;;;11.50;10.00;;;;;;;;;;5042423;28;20541;-53
2022/04/28 06:20:41;;;;;;;10.13;7.80;;;;;;;;;;5050866;28;21095;-57
2022/04/28 06:23:08;;;;;;;14.33;8.53;;;;;;;;;;5052802;28;20556;-53
2022/04/28 06:25:34;;;;;;;11.90;9.10;;;;;;;;;;5048287;28;20463;-53
2022/04/28 06:28:00;;;;;;;10.63;8.73;;;;;;;;;;5072671;28;20440;-53
2022/04/28 06:30:46;;;;;;;11.97;8.70;;;;;;;;;;5027611;28;20456;-54
2022/04/28 06:33:21;;;;;;;13.10;9.47;;;;;;;;;;5050497;28;20746;-53
2022/04/28 06:36:17;;;;;;;11.40;8.50;;;;;;;;;;5043804;28;20829;-53
2022/04/28 06:38:50;;;;;;;9.83;7.97;;;;;;;;;;5041667;28;20486;-53
2022/04/28 06:41:16;;;;;;;10.77;8.50;;;;;;;;;;5048399;28;20481;-53
2022/04/28 06:43:44;;;;;;;10.10;8.73;;;;;;;;;;5055382;28;20512;-58
2022/04/28 06:46:21;;;;;;;10.87;8.77;;;;;;;;;;5030496;28;21033;-54
2022/04/28 06:48:52;;;;;;;8.87;7.97;;;;;;;;;;5046226;28;20720;-51
2022/04/28 06:51:18;;;;;;;12.00;8.50;;;;;;;;;;5031962;28;20591;-53
2022/04/28 06:53:44;;;;;;;10.40;8.53;;;;;;;;;;5045283;28;20552;-53
2022/04/28 06:56:21;;;;;;;12.97;8.77;;;;;;;;;;5025732;28;20465;-53
2022/04/28 06:58:53;;;;;;;9.47;7.83;;;;;;;;;;5045627;28;20436;-54
2022/04/28 07:01:30;;;;;;;9.70;8.07;;;;;;;;;;5034500;28;20474;-52
2022/04/28 07:04:17;;;;;;;9.27;6.50;;;;;;;;;;5006435;28;20879;-53
2022/04/28 07:06:45;;;;;;;9.30;7.63;;;;;;;;;;5031759;28;20585;-53
2022/04/28 07:09:29;;;;;;;8.67;7.10;;;;;;;;;;5008031;28;20469;-53
2022/04/28 07:11:59;;;;;;;8.67;6.50;;;;;;;;;;5041615;28;20445;-52
2022/04/28 07:14:26;;;;;;;9.77;6.93;;;;;;;;;;5021460;28;20437;-55
2022/04/28 07:17:02;;;;;;;9.70;6.33;;;;;;;;;;5021345;28;20433;-53
2022/04/28 07:19:37;;;;;;;7.60;6.27;;;;;;;;;;5040025;28;20445;-53
2022/04/28 07:22:16;;;;;;;6.70;6.00;;;;;;;;;;5034913;28;20558;-53
2022/04/28 07:25:16;;;;;;;6.87;6.17;;;;;;;;;;5034881;28;20526;-56
2022/04/28 07:27:48;;;;;;;7.70;5.90;;;;;;;;;;5016854;28;20810;-53
2022/04/28 07:30:15;;;;;;;7.47;5.67;;;;;;;;;;5039921;28;20817;-52
2022/04/28 07:33:21;;;;;;;8.17;7.03;;;;;;;;;;5044242;28;20430;-56
2022/04/28 07:35:56;;;;;;;9.53;6.33;;;;;;;;;;5035720;28;20553;-53
2022/04/28 07:38:37;;;;;;;7.77;5.90;;;;;;;;;;5042736;28;20433;-55
2022/04/28 07:41:06;;;;;;;7.43;6.00;;;;;;;;;;5054815;28;20523;-53
2022/04/28 07:43:45;;;;;;;9.50;5.77;;;;;;;;;;5022655;28;21247;-53
2022/04/28 07:46:12;;;;;;;6.23;5.60;;;;;;;;;;5068988;28;20481;-54
2022/04/28 07:48:55;;;;;;;6.63;6.03;;;;;;;;;;5044934;28;20425;-54
2022/04/28 07:51:28;;;;;;;7.03;5.90;;;;;;;;;;5056138;28;20441;-54
2022/04/28 07:54:11;;;;;;;6.00;5.27;;;;;;;;;;5037962;28;20452;-53
2022/04/28 07:56:42;;;;;;;5.27;4.67;;;;;;;;;;5030211;27;20506;-55
2022/04/28 07:59:09;;;;;;;5.37;4.87;;;;;;;;;;5036954;28;20449;-53
2022/04/28 08:01:35;;;;;;;5.10;4.50;;;;;;;;;;5038333;28;20540;-53
2022/04/28 08:04:03;;;;;;;5.70;4.93;;;;;;;;;;5051532;28;21108;-55
2022/04/28 08:06:31;;;;;;;5.93;5.13;;;;;;;;;;5030802;28;20478;-54
2022/04/28 08:09:11;;;;;;;7.20;5.70;;;;;;;;;;5010840;28;20430;-53
2022/04/28 08:11:42;;;;;;;5.53;4.43;;;;;;;;;;5012925;28;20464;-53
2022/04/28 08:14:42;;;;;;;7.20;4.30;;;;;;;;;;5036407;28;20460;-52
2022/04/28 08:17:24;;;;;;;5.53;4.70;;;;;;;;;;5013032;28;20437;-53
2022/04/28 08:19:55;;;;;;;5.63;4.53;;;;;;;;;;5018938;28;20542;-54
2022/04/28 08:22:22;;;;;;;6.70;5.20;;;;;;;;;;5016179;28;20538;-53
2022/04/28 08:25:15;;;;;;;5.07;4.57;;;;;;;;;;5024968;28;20537;-56
2022/04/28 08:27:45;;;;;;;5.63;4.90;;;;;;;;;;5030060;28;20441;-54
2022/04/28 08:30:11;;;;;;;6.47;4.93;;;;;;;;;;5049474;28;20491;-50
2022/04/28 08:32:38;;;;;;;5.70;4.60;;;;;;;;;;5054705;28;20495;-52
2022/04/28 08:35:16;;;;;;;6.43;4.90;;;;;;;;;;5029292;28;21113;-55
2022/04/28 08:37:42;;;;;;;6.00;4.93;;;;;;;;;;5047551;28;20916;-52
2022/04/28 08:40:08;;;;;;;7.60;6.17;;;;;;;;;;5036516;28;20457;-51
2022/04/28 08:42:50;;;;;;;4.80;4.30;;;;;;;;;;5037383;28;20697;-52
2022/04/28 08:45:23;;;;;;;5.67;5.07;;;;;;;;;;5029242;28;20433;-54
2022/04/28 08:47:49;;;;;;;7.13;4.97;;;;;;;;;;5019216;28;21004;-52
2022/04/28 08:50:32;;;;;;;6.17;5.17;;;;;;;;;;5002289;28;20449;-54
2022/04/28 08:53:04;;;;;;;5.33;4.60;;;;;;;;;;5034987;28;20265;-53
2022/04/28 08:55:30;;;;;;;4.63;3.90;;;;;;;;;;5005748;28;20437;-52
2022/04/28 08:57:56;;;;;;;5.07;4.57;;;;;;;;;;5030128;28;20496;-52
2022/04/28 09:00:28;;;;;;;6.03;3.97;;;;;;;;;;5029395;28;20465;-53
2022/04/28 09:02:55;;;;;;;4.30;3.90;;;;;;;;;;5044442;28;20777;-52
2022/04/28 09:05:21;;;;;;;6.30;4.53;;;;;;;;;;5019787;28;20490;-50
2022/04/28 09:07:48;;;;;;;7.50;4.77;;;;;;;;;;5031493;28;21006;-51
2022/04/28 09:10:32;;;;;;;6.73;5.30;;;;;;;;;;5036479;28;20969;-54
2022/04/28 09:16:01;;;;;;;3.70;3.40;;;;;;;;;;5015612;28;20575;-53
2022/04/28 09:18:27;;;;;;;5.13;4.73;;;;;;;;;;5036810;28;20874;-54
2022/04/28 09:20:53;;;;;;;5.43;4.57;;;;;;;;;;5029007;28;20608;-53
2022/04/28 09:23:21;;;;;;;5.83;3.40;;;;;;;;;;5024751;28;20470;-53
2022/04/28 09:26:13;;;;;;;7.07;4.30;;;;;;;;;;5000937;28;20642;-55
2022/04/28 09:28:48;;;;;;;8.03;7.33;;;;;;;;;;5005385;28;20455;-53
2022/04/28 09:31:23;;;;;;;7.07;4.83;;;;;;;;;;4991020;28;21185;-54
2022/04/28 09:33:49;;;;;;;5.20;4.30;;;;;;;;;;5020916;28;20819;-54
2022/04/28 09:36:19;;;;;;;4.43;4.03;;;;;;;;;;4995995;28;21475;-53
2022/04/28 09:38:45;;;;;;;4.03;3.33;;;;;;;;;;5022156;28;20442;-53
2022/04/28 09:43:57;;;;;;;4.00;3.70;;;;;;;;;;5015051;28;20571;-53
2022/04/28 09:46:33;;;;;;;4.03;3.53;;;;;;;;;;4991084;28;20663;-50
2022/04/28 09:49:01;;;;;;;4.70;3.87;;;;;;;;;;5032746;28;20438;-53
2022/04/28 09:51:27;;;;;;;5.00;3.17;;;;;;;;;;5016744;28;20442;-56
2022/04/28 09:53:56;;;;;;;4.10;3.70;;;;;;;;;;5024358;28;20852;-53
2022/04/28 09:56:34;;;;;;;6.10;2.93;;;;;;;;;;4973051;28;21528;-51
2022/04/28 09:59:05;;;;;;;3.80;3.40;;;;;;;;;;5010783;28;21586;-52
2022/04/28 10:01:31;;;;;;;4.40;4.00;;;;;;;;;;4999271;28;20611;-53
2022/04/28 10:03:57;;;;;;;5.73;3.37;;;;;;;;;;5015419;28;20967;-53
2022/04/28 10:06:26;;;;;;;4.77;3.10;;;;;;;;;;4984109;28;20859;-54
2022/04/28 10:08:53;;;;;;;4.03;2.90;;;;;;;;;;5018267;28;21308;-54
2022/04/28 10:11:21;;;;;;;4.03;3.20;;;;;;;;;;5009083;28;21327;-53
2022/04/28 10:13:49;;;;;;;4.37;3.50;;;;;;;;;;5009430;28;20457;-52
2022/04/28 10:16:16;;;;;;;3.93;3.53;;;;;;;;;;4992659;28;20551;-51
2022/04/28 10:18:48;;;;;;;4.87;3.10;;;;;;;;;;5016250;28;20546;-53
2022/04/28 10:21:20;;;;;;;3.97;3.57;;;;;;;;;;4986622;28;20513;-52
2022/04/28 10:32:24;;;;;;;7.83;2.70;;;;;;;;;;4979543;28;20437;-53
2022/04/28 10:35:16;;;;;;;6.10;3.00;;;;;;;;;;5025936;28;20459;-53
2022/04/28 10:37:49;;;;;;;4.17;3.17;;;;;;;;;;5025149;28;20531;-52
2022/04/28 10:40:16;;;;;;;3.90;3.33;;;;;;;;;;5015473;28;20450;-51
2022/04/28 10:43:00;;;;;;;4.13;3.47;;;;;;;;;;5017605;28;20450;-54
2022/04/28 10:45:39;;;;;;;5.30;3.40;;;;;;;;;;5022143;28;21011;-54
2022/04/28 10:51:02;;;;;;;4.20;3.30;;;;;;;;;;5016034;28;20447;-52
2022/04/28 10:53:28;;;;;;;3.63;3.33;;;;;;;;;;4995844;28;20439;-54
2022/04/28 10:55:55;;;;;;;4.20;3.60;;;;;;;;;;5017058;28;21281;-53
2022/04/28 10:58:35;;;;;;;3.43;3.00;;;;;;;;;;5003170;28;20450;-55
2022/04/28 11:01:06;;;;;;;7.70;3.80;;;;;;;;;;5025110;28;20472;-54
2022/04/28 11:03:56;;;;;;;3.00;2.80;;;;;;;;;;4968940;28;20446;-50
2022/04/28 11:06:31;;;;;;;4.80;3.30;;;;;;;;;;5013492;28;20438;-54
2022/04/28 11:09:02;;;;;;;2.83;2.63;;;;;;;;;;4999964;28;20860;-56
2022/04/28 11:11:47;;;;;;;3.73;3.30;;;;;;;;;;5031258;28;20438;-52
2022/04/28 11:14:13;;;;;;;3.73;3.37;;;;;;;;;;5008624;28;20446;-55
2022/04/28 11:16:42;;;;;;;5.10;3.10;;;;;;;;;;5014328;28;20861;-56
2022/04/28 11:19:08;;;;;;;3.00;2.60;;;;;;;;;;4988856;28;20458;-54
2022/04/28 11:21:35;;;;;;;5.90;3.50;;;;;;;;;;4996202;28;20470;-54
2022/04/28 11:24:01;;;;;;;4.27;3.40;;;;;;;;;;4997756;28;20895;-53
2022/04/28 11:26:28;;;;;;;4.77;3.67;;;;;;;;;;5030161;28;20508;-52
2022/04/28 11:28:56;;;;;;;3.60;3.30;;;;;;;;;;5031848;28;20708;-57
2022/04/28 11:31:22;;;;;;;3.67;3.37;;;;;;;;;;5033001;28;20569;-52
2022/04/28 11:33:49;;;;;;;5.57;4.10;;;;;;;;;;4997837;28;20450;-53
2022/04/28 11:36:25;;;;;;;6.27;3.77;;;;;;;;;;5034728;28;20951;-54
2022/04/28 11:38:55;;;;;;;3.80;3.30;;;;;;;;;;5026417;28;20421;-52
2022/04/28 11:41:25;;;;;;;3.40;3.10;;;;;;;;;;5032673;28;20481;-54
2022/04/28 11:43:52;;;;;;;3.50;2.93;;;;;;;;;;5007516;28;21329;-53
2022/04/28 11:46:19;;;;;;;4.70;3.70;;;;;;;;;;5033834;28;20842;-54
2022/04/28 11:48:45;;;;;;;3.90;3.40;;;;;;;;;;5031101;28;20442;-53
2022/04/28 11:51:14;;;;;;;5.70;3.80;;;;;;;;;;5033544;28;20444;-54
2022/04/28 11:53:42;;;;;;;3.70;3.03;;;;;;;;;;5013018;28;20451;-54
2022/04/28 11:56:35;;;;;;;4.30;3.50;;;;;;;;;;5035361;28;20445;-53
2022/04/28 11:59:05;;;;;;;4.20;3.33;;;;;;;;;;5018976;28;20470;-53
2022/04/28 12:01:33;;;;;;;3.77;3.37;;;;;;;;;;5033402;28;20509;-53
2022/04/28 12:04:01;;;;;;;5.20;3.37;;;;;;;;;;4997912;28;20434;-54
2022/04/28 12:06:28;;;;;;;4.33;3.93;;;;;;;;;;5031228;28;20829;-53
2022/04/28 12:08:55;;;;;;;4.83;4.20;;;;;;;;;;5027834;28;20439;-53
2022/04/28 12:14:25;;;;;;;3.67;3.10;;;;;;;;;;5007453;28;20519;-53
2022/04/28 12:19:56;;;;;;;5.70;3.80;;;;;;;;;;5030010;28;20681;-53
2022/04/28 12:22:29;;;;;;;5.30;3.87;;;;;;;;;;5034625;28;20818;-53
2022/04/28 12:24:55;;;;;;;3.30;2.80;;;;;;;;;;5007524;28;20631;-53
2022/04/28 12:27:22;;;;;;;6.63;3.50;;;;;;;;;;5037307;28;21317;-52
2022/04/28 12:29:52;;;;;;;3.90;2.97;;;;;;;;;;5017234;28;20447;-53
2022/04/28 12:32:19;;;;;;;4.23;3.60;;;;;;;;;;5035115;28;20434;-54
2022/04/28 12:34:46;;;;;;;3.97;3.53;;;;;;;;;;4998407;28;20448;-54
2022/04/28 12:37:27;;;;;;;3.60;3.30;;;;;;;;;;5026232;28;21524;-53
2022/04/28 12:39:57;;;;;;;6.87;3.10;;;;;;;;;;5037229;28;20426;-54
2022/04/28 12:42:25;;;;;;;4.60;3.40;;;;;;;;;;5031953;28;20884;-57
2022/04/28 12:45:01;;;;;;;3.37;3.00;;;;;;;;;;5033571;28;20462;-53
2022/04/28 12:47:42;;;;;;;4.30;2.90;;;;;;;;;;5005104;28;20530;-55
2022/04/28 12:50:23;;;;;;;4.63;3.40;;;;;;;;;;5036083;28;20549;-53
2022/04/28 12:52:49;;;;;;;3.90;3.30;;;;;;;;;;5009901;28;20446;-53
2022/04/28 12:55:17;;;;;;;4.73;3.17;;;;;;;;;;5032685;28;20488;-52
2022/04/28 12:57:43;;;;;;;3.50;2.97;;;;;;;;;;5010363;28;20433;-53
2022/04/28 13:00:10;;;;;;;3.43;3.13;;;;;;;;;;5008335;28;20446;-55
2022/04/28 13:02:36;;;;;;;6.00;2.90;;;;;;;;;;5034777;28;20446;-53
2022/04/28 13:05:13;;;;;;;5.37;3.57;;;;;;;;;;4991911;28;21187;-53
2022/04/28 13:07:42;;;;;;;4.23;2.90;;;;;;;;;;5042120;28;20930;-53
2022/04/28 13:10:09;;;;;;;3.70;3.40;;;;;;;;;;5030787;28;21150;-54
2022/04/28 13:12:35;;;;;;;3.63;3.20;;;;;;;;;;5035891;28;20481;-54
2022/04/28 13:15:02;;;;;;;4.93;3.53;;;;;;;;;;5021206;28;20493;-53
2022/04/28 13:17:28;;;;;;;6.00;3.83;;;;;;;;;;5023488;28;21322;-54
2022/04/28 13:19:54;;;;;;;3.97;2.93;;;;;;;;;;5035003;28;20537;-54
2022/04/28 13:22:20;;;;;;;3.57;3.27;;;;;;;;;;5036514;28;20725;-53
2022/04/28 13:24:46;;;;;;;4.07;2.83;;;;;;;;;;5018792;28;20439;-53
2022/04/28 13:27:12;;;;;;;4.20;3.33;;;;;;;;;;5023636;28;20470;-52
2022/04/28 13:29:39;;;;;;;8.63;3.53;;;;;;;;;;5014229;28;20717;-53
2022/04/28 13:32:08;;;;;;;3.50;3.20;;;;;;;;;;5043024;28;20437;-54
2022/04/28 13:34:34;;;;;;;5.00;3.10;;;;;;;;;;5022293;28;21176;-53
2022/04/28 13:37:01;;;;;;;3.57;3.27;;;;;;;;;;5036208;28;20423;-52
2022/04/28 13:39:27;;;;;;;3.70;3.30;;;;;;;;;;4994653;28;20543;-53
2022/04/28 13:41:56;;;;;;;3.33;3.00;;;;;;;;;;5030470;28;20578;-54
2022/04/28 13:44:23;;;;;;;5.63;3.03;;;;;;;;;;5001810;28;20176;-53
2022/04/28 13:46:50;;;;;;;4.10;3.47;;;;;;;;;;5037089;28;20530;-54
2022/04/28 13:49:17;;;;;;;3.27;2.90;;;;;;;;;;5021119;28;20446;-60
2022/04/28 13:51:42;;;;;;;5.70;3.90;;;;;;;;;;5037882;28;20501;-55
2022/04/28 13:54:08;;;;;;;4.60;3.60;;;;;;;;;;5017781;28;20446;-52
2022/04/28 13:56:38;;;;;;;4.03;3.70;;;;;;;;;;5034064;28;20181;-53
2022/04/28 13:59:04;;;;;;;4.50;4.10;;;;;;;;;;5018819;28;20540;-55
2022/04/28 14:01:33;;;;;;;3.30;3.00;;;;;;;;;;5037054;28;20984;-54
2022/04/28 14:04:00;;;;;;;5.00;3.97;;;;;;;;;;5014733;28;20768;-53
2022/04/28 14:06:26;;;;;;;4.67;4.23;;;;;;;;;;5030347;28;20455;-52
2022/04/28 14:09:05;;;;;;;3.70;3.20;;;;;;;;;;4986936;28;20469;-54
2022/04/28 14:11:34;;;;;;;3.53;3.23;;;;;;;;;;5043404;28;20180;-53
2022/04/28 14:14:04;;;;;;;4.00;3.63;;;;;;;;;;5014285;28;20430;-53
2022/04/28 14:16:31;;;;;;;5.20;4.07;;;;;;;;;;5039525;28;20439;-52
2022/04/28 14:18:57;;;;;;;4.53;3.90;;;;;;;;;;5019449;28;20430;-52
2022/04/28 14:21:22;;;;;;;4.37;3.97;;;;;;;;;;5025562;28;20500;-52
2022/04/28 14:23:48;;;;;;;4.00;3.67;;;;;;;;;;5029725;28;20278;-54
2022/04/28 14:26:14;;;;;;;3.83;2.87;;;;;;;;;;5011513;28;20446;-54
2022/04/28 14:29:04;;;;;;;4.63;4.17;;;;;;;;;;5036720;28;20485;-54
2022/04/28 14:31:34;;;;;;;3.93;3.53;;;;;;;;;;5032326;28;20570;-53
2022/04/28 14:34:12;;;;;;;3.60;3.30;;;;;;;;;;5036615;28;20532;-54
2022/04/28 14:36:41;;;;;;;4.40;3.57;;;;;;;;;;5034760;28;20451;-53
2022/04/28 14:39:07;;;;;;;4.83;2.97;;;;;;;;;;5012418;28;20430;-54
2022/04/28 14:41:33;;;;;;;3.43;2.73;;;;;;;;;;5029752;28;20486;-54
2022/04/28 14:44:15;;;;;;;3.43;3.07;;;;;;;;;;5037809;28;20438;-53
2022/04/28 14:46:43;;;;;;;5.20;3.80;;;;;;;;;;5036194;28;20818;-54
2022/04/28 14:54:40;;;;;;;4.63;4.23;;;;;;;;;;5034674;28;20453;-55
2022/04/28 14:57:09;;;;;;;4.33;3.93;;;;;;;;;;5045982;28;20466;-53
2022/04/28 14:59:35;;;;;;;3.80;3.40;;;;;;;;;;5042564;28;20434;-54
2022/04/28 15:02:02;;;;;;;3.47;3.17;;;;;;;;;;5048048;28;20477;-52
2022/04/28 15:04:29;;;;;;;4.47;3.60;;;;;;;;;;5012573;28;20442;-54
2022/04/28 15:06:55;;;;;;;5.40;3.50;;;;;;;;;;5044750;28;20441;-54
2022/04/28 15:09:21;;;;;;;3.50;3.20;;;;;;;;;;5021504;28;20442;-54
2022/04/28 15:11:47;;;;;;;3.53;3.20;;;;;;;;;;5041999;28;20461;-56
2022/04/28 15:14:13;;;;;;;4.17;3.77;;;;;;;;;;5006763;28;21013;-53
2022/04/28 15:16:39;;;;;;;3.80;3.30;;;;;;;;;;5035262;28;20454;-51
2022/04/28 15:19:05;;;;;;;3.73;3.33;;;;;;;;;;5015039;28;20441;-54
2022/04/28 15:21:31;;;;;;;3.77;3.47;;;;;;;;;;5021998;28;20532;-53
2022/04/28 15:23:57;;;;;;;4.50;3.77;;;;;;;;;;5039548;28;20821;-52
2022/04/28 15:26:29;;;;;;;3.37;3.07;;;;;;;;;;5036386;28;20438;-54
2022/04/28 15:28:55;;;;;;;3.40;3.10;;;;;;;;;;5040569;28;21272;-55
2022/04/28 15:31:21;;;;;;;4.57;3.10;;;;;;;;;;5026961;28;20559;-54
2022/04/28 15:33:47;;;;;;;4.07;3.67;;;;;;;;;;5036169;28;20943;-55
2022/04/28 15:36:13;;;;;;;5.30;3.03;;;;;;;;;;5010597;28;20980;-53
2022/04/28 15:38:40;;;;;;;4.20;3.80;;;;;;;;;;5035600;28;20260;-54
2022/04/28 15:41:08;;;;;;;4.33;3.77;;;;;;;;;;5017197;28;22853;-53
2022/04/28 15:43:34;;;;;;;4.63;3.93;;;;;;;;;;5048186;28;21067;-54
2022/04/28 15:46:08;;;;;;;4.20;3.80;;;;;;;;;;4998653;28;22414;-53
2022/04/28 15:48:34;;;;;;;4.70;3.77;;;;;;;;;;5033532;28;20271;-54
2022/04/28 15:51:17;;;;;;;4.60;4.00;;;;;;;;;;5022349;28;23042;-53